sensor_id;sensor_type;location;lat;lon;timestamp;temperature;humidity
3268;DHT22;1646;52.450;13.326;2023-09-18T00:00:18;21.80;99.90
3268;DHT22;1646;52.450;13.326;2023-09-18T00:05:19;21.70;99.90
3268;DHT22;1646;52.450;13.326;2023-09-18T00:10:18;21.60;99.90
3268;DHT22;1646;52.450;13.326;2023-09-18T00:15:16;21.60;99.90
3268;DHT22;1646;52.450;13.326;2023-09-18T00:20:15;21.50;99.90
3268;DHT22;1646;52.450;13.326;2023-09-18T00:25:16;21.50;99.90
3268;DHT22;1646;52.450;13.326;2023-09-18T00:30:14;21.40;99.90
3268;DHT22;1646;52.450;13.326;2023-09-18T00:35:12;21.30;99.90
3268;DHT22;1646;52.450;13.326;2023-09-18T00:40:12;21.30;99.90
3268;DHT22;1646;52.450;13.326;2023-09-18T00:45:11;21.30;99.90
3268;DHT22;1646;52.450;13.326;2023-09-18T00:50:12;21.20;99.90
3268;DHT22;1646;52.450;13.326;2023-09-18T00:55:11;21.20;99.90
3268;DHT22;1646;52.450;13.326;2023-09-18T01:00:13;21.20;99.90
3268;DHT22;1646;52.450;13.326;2023-09-18T01:05:15;21.20;99.90
3268;DHT22;1646;52.450;13.326;2023-09-18T01:10:15;21.10;99.90
3268;DHT22;1646;52.450;13.326;2023-09-18T01:15:19;21.10;99.90
3268;DHT22;1646;52.450;13.326;2023-09-18T01:20:20;21.10;99.90
3268;DHT22;1646;52.450;13.326;2023-09-18T01:25:20;21.00;99.90
3268;DHT22;1646;52.450;13.326;2023-09-18T01:30:18;21.00;99.90
3268;DHT22;1646;52.450;13.326;2023-09-18T01:35:17;21.00;99.90
3268;DHT22;1646;52.450;13.326;2023-09-18T01:40:16;21.00;99.90
3268;DHT22;1646;52.450;13.326;2023-09-18T01:45:16;20.90;99.90
3268;DHT22;1646;52.450;13.326;2023-09-18T01:50:15;20.90;99.90
3268;DHT22;1646;52.450;13.326;2023-09-18T01:55:13;20.80;99.90
3268;DHT22;1646;52.450;13.326;2023-09-18T02:00:13;20.70;99.90
3268;DHT22;1646;52.450;13.326;2023-09-18T02:05:13;20.60;99.90
3268;DHT22;1646;52.450;13.326;2023-09-18T02:10:12;20.50;99.90
3268;DHT22;1646;52.450;13.326;2023-09-18T02:15:11;20.50;99.90
3268;DHT22;1646;52.450;13.326;2023-09-18T02:20:10;20.50;99.90
3268;DHT22;1646;52.450;13.326;2023-09-18T02:25:10;20.40;99.90
3268;DHT22;1646;52.450;13.326;2023-09-18T02:30:09;20.40;99.90
3268;DHT22;1646;52.450;13.326;2023-09-18T02:35:08;20.40;99.90
3268;DHT22;1646;52.450;13.326;2023-09-18T02:40:08;20.40;99.90
3268;DHT22;1646;52.450;13.326;2023-09-18T02:45:08;20.40;99.90
3268;DHT22;1646;52.450;13.326;2023-09-18T02:50:08;20.30;99.90
3268;DHT22;1646;52.450;13.326;2023-09-18T02:55:08;20.30;99.90
3268;DHT22;1646;52.450;13.326;2023-09-18T03:00:10;20.20;99.90
3268;DHT22;1646;52.450;13.326;2023-09-18T03:05:09;20.20;99.90
3268;DHT22;1646;52.450;13.326;2023-09-18T03:10:09;20.10;99.90
3268;DHT22;1646;52.450;13.326;2023-09-18T03:15:12;20.10;99.90
3268;DHT22;1646;52.450;13.326;2023-09-18T03:20:11;20.00;99.90
3268;DHT22;1646;52.450;13.326;2023-09-18T03:25:10;20.00;99.90
3268;DHT22;1646;52.450;13.326;2023-09-18T03:30:09;20.00;99.90
3268;DHT22;1646;52.450;13.326;2023-09-18T03:35:11;20.00;99.90
3268;DHT22;1646;52.450;13.326;2023-09-18T03:40:18;20.00;99.90
3268;DHT22;1646;52.450;13.326;2023-09-18T03:45:16;20.00;99.90
3268;DHT22;1646;52.450;13.326;2023-09-18T03:50:19;19.90;99.90
3268;DHT22;1646;52.450;13.326;2023-09-18T03:55:18;19.90;99.90
3268;DHT22;1646;52.450;13.326;2023-09-18T04:00:17;19.80;99.90
3268;DHT22;1646;52.450;13.326;2023-09-18T04:05:15;19.80;99.90
3268;DHT22;1646;52.450;13.326;2023-09-18T04:10:15;19.70;99.90
3268;DHT22;1646;52.450;13.326;2023-09-18T04:15:18;19.70;99.90
3268;DHT22;1646;52.450;13.326;2023-09-18T04:20:17;19.70;99.90
3268;DHT22;1646;52.450;13.326;2023-09-18T04:25:17;19.70;99.90
3268;DHT22;1646;52.450;13.326;2023-09-18T04:30:17;19.60;99.90
3268;DHT22;1646;52.450;13.326;2023-09-18T04:35:18;19.60;99.90
3268;DHT22;1646;52.450;13.326;2023-09-18T04:40:18;19.60;99.90
3268;DHT22;1646;52.450;13.326;2023-09-18T04:45:16;19.50;99.90
3268;DHT22;1646;52.450;13.326;2023-09-18T04:50:15;19.50;99.90
3268;DHT22;1646;52.450;13.326;2023-09-18T04:55:16;19.50;99.90
3268;DHT22;1646;52.450;13.326;2023-09-18T05:00:16;19.40;99.90
3268;DHT22;1646;52.450;13.326;2023-09-18T05:05:15;19.30;99.90
3268;DHT22;1646;52.450;13.326;2023-09-18T05:10:16;19.30;99.90
3268;DHT22;1646;52.450;13.326;2023-09-18T05:15:16;19.30;99.90
3268;DHT22;1646;52.450;13.326;2023-09-18T05:20:16;19.40;99.90
3268;DHT22;1646;52.450;13.326;2023-09-18T05:25:15;19.50;99.90
3268;DHT22;1646;52.450;13.326;2023-09-18T05:30:17;19.50;99.90
3268;DHT22;1646;52.450;13.326;2023-09-18T05:35:19;19.60;99.90
3268;DHT22;1646;52.450;13.326;2023-09-18T05:40:18;19.60;99.90
3268;DHT22;1646;52.450;13.326;2023-09-18T05:45:18;19.70;99.90
3268;DHT22;1646;52.450;13.326;2023-09-18T05:50:16;19.70;99.90
3268;DHT22;1646;52.450;13.326;2023-09-18T05:55:15;19.80;99.90
3268;DHT22;1646;52.450;13.326;2023-09-18T06:00:13;20.00;99.90
3268;DHT22;1646;52.450;13.326;2023-09-18T06:05:14;20.00;99.90
3268;DHT22;1646;52.450;13.326;2023-09-18T06:10:14;20.20;99.90
3268;DHT22;1646;52.450;13.326;2023-09-18T06:15:13;20.30;99.90
3268;DHT22;1646;52.450;13.326;2023-09-18T06:20:14;20.40;99.90
3268;DHT22;1646;52.450;13.326;2023-09-18T06:25:13;20.50;99.90
3268;DHT22;1646;52.450;13.326;2023-09-18T06:30:12;20.70;99.90
3268;DHT22;1646;52.450;13.326;2023-09-18T06:35:11;20.80;99.90
3268;DHT22;1646;52.450;13.326;2023-09-18T06:40:11;20.90;99.90
3268;DHT22;1646;52.450;13.326;2023-09-18T06:45:27;21.10;99.90
3268;DHT22;1646;52.450;13.326;2023-09-18T06:50:25;21.10;99.90
3268;DHT22;1646;52.450;13.326;2023-09-18T06:55:25;21.20;99.90
3268;DHT22;1646;52.450;13.326;2023-09-18T07:00:23;21.40;99.90
3268;DHT22;1646;52.450;13.326;2023-09-18T07:05:22;21.50;99.90
3268;DHT22;1646;52.450;13.326;2023-09-18T07:10:21;21.70;99.90
3268;DHT22;1646;52.450;13.326;2023-09-18T07:15:20;21.80;99.90
3268;DHT22;1646;52.450;13.326;2023-09-18T07:20:19;22.00;99.90
3268;DHT22;1646;52.450;13.326;2023-09-18T07:25:19;22.10;99.90
3268;DHT22;1646;52.450;13.326;2023-09-18T07:30:19;22.30;99.90
3268;DHT22;1646;52.450;13.326;2023-09-18T07:35:19;22.60;99.90
3268;DHT22;1646;52.450;13.326;2023-09-18T07:40:17;22.90;99.90
3268;DHT22;1646;52.450;13.326;2023-09-18T07:45:16;23.10;99.90
3268;DHT22;1646;52.450;13.326;2023-09-18T07:50:16;23.10;99.90
3268;DHT22;1646;52.450;13.326;2023-09-18T07:55:15;23.00;99.90
3268;DHT22;1646;52.450;13.326;2023-09-18T08:00:14;23.20;99.90
3268;DHT22;1646;52.450;13.326;2023-09-18T08:05:13;23.20;99.90
3268;DHT22;1646;52.450;13.326;2023-09-18T08:10:13;23.30;99.90
3268;DHT22;1646;52.450;13.326;2023-09-18T08:15:12;23.50;99.90
3268;DHT22;1646;52.450;13.326;2023-09-18T08:20:11;23.80;99.90
3268;DHT22;1646;52.450;13.326;2023-09-18T08:25:12;24.40;99.90
3268;DHT22;1646;52.450;13.326;2023-09-18T08:30:12;24.90;99.90
3268;DHT22;1646;52.450;13.326;2023-09-18T08:35:11;25.20;99.90
3268;DHT22;1646;52.450;13.326;2023-09-18T08:40:10;25.50;99.90
3268;DHT22;1646;52.450;13.326;2023-09-18T08:45:17;26.10;99.90
3268;DHT22;1646;52.450;13.326;2023-09-18T08:50:17;27.10;99.90
3268;DHT22;1646;52.450;13.326;2023-09-18T08:55:17;27.80;99.90
3268;DHT22;1646;52.450;13.326;2023-09-18T09:00:17;28.50;99.90
3268;DHT22;1646;52.450;13.326;2023-09-18T09:05:15;29.70;99.90
3268;DHT22;1646;52.450;13.326;2023-09-18T09:10:14;29.90;99.90
3268;DHT22;1646;52.450;13.326;2023-09-18T09:15:12;30.10;99.90
3268;DHT22;1646;52.450;13.326;2023-09-18T09:20:14;30.50;99.90
3268;DHT22;1646;52.450;13.326;2023-09-18T09:25:22;30.10;99.90
3268;DHT22;1646;52.450;13.326;2023-09-18T09:30:24;29.30;99.90
3268;DHT22;1646;52.450;13.326;2023-09-18T09:35:27;29.10;99.90
3268;DHT22;1646;52.450;13.326;2023-09-18T09:40:26;28.60;99.90
3268;DHT22;1646;52.450;13.326;2023-09-18T09:45:25;28.90;99.90
3268;DHT22;1646;52.450;13.326;2023-09-18T09:50:25;29.00;99.90
3268;DHT22;1646;52.450;13.326;2023-09-18T09:55:25;28.60;99.90
3268;DHT22;1646;52.450;13.326;2023-09-18T10:00:25;28.20;99.90
3268;DHT22;1646;52.450;13.326;2023-09-18T10:05:30;28.00;99.90
3268;DHT22;1646;52.450;13.326;2023-09-18T10:10:33;27.80;99.90
3268;DHT22;1646;52.450;13.326;2023-09-18T10:15:34;27.60;99.90
3268;DHT22;1646;52.450;13.326;2023-09-18T10:20:39;27.70;99.90
3268;DHT22;1646;52.450;13.326;2023-09-18T10:25:40;27.70;99.90
3268;DHT22;1646;52.450;13.326;2023-09-18T10:30:39;27.70;99.90
3268;DHT22;1646;52.450;13.326;2023-09-18T10:35:40;28.10;99.90
3268;DHT22;1646;52.450;13.326;2023-09-18T10:40:40;27.80;99.90
3268;DHT22;1646;52.450;13.326;2023-09-18T10:45:39;27.50;99.90
3268;DHT22;1646;52.450;13.326;2023-09-18T10:50:42;27.20;99.90
3268;DHT22;1646;52.450;13.326;2023-09-18T10:55:44;27.20;99.90
3268;DHT22;1646;52.450;13.326;2023-09-18T11:00:43;27.30;99.90
3268;DHT22;1646;52.450;13.326;2023-09-18T11:05:44;27.30;99.90
3268;DHT22;1646;52.450;13.326;2023-09-18T11:10:55;27.30;99.90
3268;DHT22;1646;52.450;13.326;2023-09-18T11:15:59;27.30;99.90
3268;DHT22;1646;52.450;13.326;2023-09-18T11:21:11;27.20;99.90
3268;DHT22;1646;52.450;13.326;2023-09-18T11:26:10;27.00;99.90
3268;DHT22;1646;52.450;13.326;2023-09-18T11:31:09;26.90;99.90
3268;DHT22;1646;52.450;13.326;2023-09-18T11:36:12;26.80;99.90
3268;DHT22;1646;52.450;13.326;2023-09-18T11:41:23;26.80;99.90
3268;DHT22;1646;52.450;13.326;2023-09-18T11:46:23;26.70;99.90
3268;DHT22;1646;52.450;13.326;2023-09-18T11:51:24;26.70;99.90
3268;DHT22;1646;52.450;13.326;2023-09-18T11:56:23;26.60;99.90
3268;DHT22;1646;52.450;13.326;2023-09-18T12:01:22;26.60;99.90
3268;DHT22;1646;52.450;13.326;2023-09-18T12:06:21;26.70;99.90
3268;DHT22;1646;52.450;13.326;2023-09-18T12:11:21;26.90;99.90
3268;DHT22;1646;52.450;13.326;2023-09-18T12:16:20;27.30;99.90
3268;DHT22;1646;52.450;13.326;2023-09-18T12:21:18;27.70;99.90
3268;DHT22;1646;52.450;13.326;2023-09-18T12:26:17;27.80;99.90
3268;DHT22;1646;52.450;13.326;2023-09-18T12:31:18;27.70;99.90
3268;DHT22;1646;52.450;13.326;2023-09-18T12:36:19;27.50;99.90
3268;DHT22;1646;52.450;13.326;2023-09-18T12:41:18;27.30;99.90
3268;DHT22;1646;52.450;13.326;2023-09-18T12:46:18;27.20;99.90
3268;DHT22;1646;52.450;13.326;2023-09-18T12:51:18;27.00;99.90
3268;DHT22;1646;52.450;13.326;2023-09-18T12:56:26;26.80;99.90
3268;DHT22;1646;52.450;13.326;2023-09-18T13:01:26;26.70;99.90
3268;DHT22;1646;52.450;13.326;2023-09-18T13:06:25;26.60;99.90
3268;DHT22;1646;52.450;13.326;2023-09-18T13:11:23;26.50;99.90
3268;DHT22;1646;52.450;13.326;2023-09-18T13:16:23;26.30;99.90
3268;DHT22;1646;52.450;13.326;2023-09-18T13:21:23;26.20;99.90
3268;DHT22;1646;52.450;13.326;2023-09-18T13:26:22;26.20;99.90
3268;DHT22;1646;52.450;13.326;2023-09-18T13:31:20;26.20;99.90
3268;DHT22;1646;52.450;13.326;2023-09-18T13:36:19;26.10;99.90
3268;DHT22;1646;52.450;13.326;2023-09-18T13:41:19;26.10;99.90
3268;DHT22;1646;52.450;13.326;2023-09-18T13:46:17;26.00;99.90
3268;DHT22;1646;52.450;13.326;2023-09-18T13:51:16;26.00;99.90
3268;DHT22;1646;52.450;13.326;2023-09-18T13:56:14;25.90;99.90
3268;DHT22;1646;52.450;13.326;2023-09-18T14:01:14;26.00;99.90
3268;DHT22;1646;52.450;13.326;2023-09-18T14:06:13;26.10;99.90
3268;DHT22;1646;52.450;13.326;2023-09-18T14:11:11;26.10;99.90
3268;DHT22;1646;52.450;13.326;2023-09-18T14:16:11;25.90;99.90
3268;DHT22;1646;52.450;13.326;2023-09-18T14:21:30;25.80;99.90
3268;DHT22;1646;52.450;13.326;2023-09-18T14:26:30;25.70;99.90
3268;DHT22;1646;52.450;13.326;2023-09-18T14:31:29;25.50;99.90
3268;DHT22;1646;52.450;13.326;2023-09-18T14:36:27;25.20;99.90
3268;DHT22;1646;52.450;13.326;2023-09-18T14:41:27;25.10;99.90
3268;DHT22;1646;52.450;13.326;2023-09-18T14:46:27;25.10;99.90
3268;DHT22;1646;52.450;13.326;2023-09-18T14:51:26;25.10;99.90
3268;DHT22;1646;52.450;13.326;2023-09-18T14:56:25;25.10;99.90
3268;DHT22;1646;52.450;13.326;2023-09-18T15:01:25;25.30;99.90
3268;DHT22;1646;52.450;13.326;2023-09-18T15:06:24;25.40;99.90
3268;DHT22;1646;52.450;13.326;2023-09-18T15:11:23;25.50;99.90
3268;DHT22;1646;52.450;13.326;2023-09-18T15:16:21;25.40;99.90
3268;DHT22;1646;52.450;13.326;2023-09-18T15:21:21;25.20;99.90
3268;DHT22;1646;52.450;13.326;2023-09-18T15:26:19;25.10;99.90
3268;DHT22;1646;52.450;13.326;2023-09-18T15:31:18;25.00;99.90
3268;DHT22;1646;52.450;13.326;2023-09-18T15:36:16;25.10;99.90
3268;DHT22;1646;52.450;13.326;2023-09-18T15:41:16;25.00;99.90
3268;DHT22;1646;52.450;13.326;2023-09-18T15:46:15;24.90;99.90
3268;DHT22;1646;52.450;13.326;2023-09-18T15:51:14;25.00;99.90
3268;DHT22;1646;52.450;13.326;2023-09-18T15:56:13;24.80;99.90
3268;DHT22;1646;52.450;13.326;2023-09-18T16:01:13;24.80;99.90
3268;DHT22;1646;52.450;13.326;2023-09-18T16:06:13;24.70;99.90
3268;DHT22;1646;52.450;13.326;2023-09-18T16:11:13;24.60;99.90
3268;DHT22;1646;52.450;13.326;2023-09-18T16:16:13;24.50;99.90
3268;DHT22;1646;52.450;13.326;2023-09-18T16:21:12;24.40;99.90
3268;DHT22;1646;52.450;13.326;2023-09-18T16:26:10;24.20;99.90
3268;DHT22;1646;52.450;13.326;2023-09-18T16:31:08;24.00;99.90
3268;DHT22;1646;52.450;13.326;2023-09-18T16:36:08;23.70;99.90
3268;DHT22;1646;52.450;13.326;2023-09-18T16:41:07;23.50;99.90
3268;DHT22;1646;52.450;13.326;2023-09-18T16:46:06;23.40;99.90
3268;DHT22;1646;52.450;13.326;2023-09-18T16:51:04;23.30;99.90
3268;DHT22;1646;52.450;13.326;2023-09-18T16:56:07;23.20;99.90
3268;DHT22;1646;52.450;13.326;2023-09-18T17:01:05;23.20;99.90
3268;DHT22;1646;52.450;13.326;2023-09-18T17:06:05;23.10;99.90
3268;DHT22;1646;52.450;13.326;2023-09-18T17:11:04;23.00;99.90
3268;DHT22;1646;52.450;13.326;2023-09-18T17:16:04;22.80;99.90
3268;DHT22;1646;52.450;13.326;2023-09-18T17:21:05;22.60;99.90
3268;DHT22;1646;52.450;13.326;2023-09-18T17:26:04;22.60;99.90
3268;DHT22;1646;52.450;13.326;2023-09-18T17:31:04;22.50;99.90
3268;DHT22;1646;52.450;13.326;2023-09-18T17:36:03;22.50;99.90
3268;DHT22;1646;52.450;13.326;2023-09-18T17:41:01;22.60;99.90
3268;DHT22;1646;52.450;13.326;2023-09-18T17:46:01;22.50;99.90
3268;DHT22;1646;52.450;13.326;2023-09-18T17:51:01;22.60;99.90
3268;DHT22;1646;52.450;13.326;2023-09-18T17:56:00;22.60;99.90
3268;DHT22;1646;52.450;13.326;2023-09-18T18:00:59;22.60;99.90
3268;DHT22;1646;52.450;13.326;2023-09-18T18:05:58;22.60;99.90
3268;DHT22;1646;52.450;13.326;2023-09-18T18:10:58;22.60;99.90
3268;DHT22;1646;52.450;13.326;2023-09-18T18:15:56;22.60;99.90
3268;DHT22;1646;52.450;13.326;2023-09-18T18:20:55;22.50;99.90
3268;DHT22;1646;52.450;13.326;2023-09-18T18:25:54;22.50;99.90
3268;DHT22;1646;52.450;13.326;2023-09-18T18:30:53;22.40;99.90
3268;DHT22;1646;52.450;13.326;2023-09-18T18:35:52;22.40;99.90
3268;DHT22;1646;52.450;13.326;2023-09-18T18:40:55;22.30;99.90
3268;DHT22;1646;52.450;13.326;2023-09-18T18:46:03;22.20;99.90
3268;DHT22;1646;52.450;13.326;2023-09-18T18:51:06;22.10;99.90
3268;DHT22;1646;52.450;13.326;2023-09-18T18:56:13;22.10;99.90
3268;DHT22;1646;52.450;13.326;2023-09-18T19:01:14;22.10;99.90
3268;DHT22;1646;52.450;13.326;2023-09-18T19:06:12;22.10;99.90
3268;DHT22;1646;52.450;13.326;2023-09-18T19:11:11;22.10;99.90
3268;DHT22;1646;52.450;13.326;2023-09-18T19:16:10;22.10;99.90
3268;DHT22;1646;52.450;13.326;2023-09-18T19:21:10;22.10;99.90
3268;DHT22;1646;52.450;13.326;2023-09-18T19:26:09;22.00;99.90
3268;DHT22;1646;52.450;13.326;2023-09-18T19:31:08;21.90;99.90
3268;DHT22;1646;52.450;13.326;2023-09-18T19:36:07;22.00;99.90
3268;DHT22;1646;52.450;13.326;2023-09-18T19:41:07;21.90;99.90
3268;DHT22;1646;52.450;13.326;2023-09-18T19:46:07;21.90;99.90
3268;DHT22;1646;52.450;13.326;2023-09-18T19:51:08;21.80;99.90
3268;DHT22;1646;52.450;13.326;2023-09-18T19:56:08;21.80;99.90
3268;DHT22;1646;52.450;13.326;2023-09-18T20:01:07;21.70;99.90
3268;DHT22;1646;52.450;13.326;2023-09-18T20:06:06;21.60;99.90
3268;DHT22;1646;52.450;13.326;2023-09-18T20:11:07;21.60;99.90
3268;DHT22;1646;52.450;13.326;2023-09-18T20:16:06;21.60;99.90
3268;DHT22;1646;52.450;13.326;2023-09-18T20:21:05;21.50;99.90
3268;DHT22;1646;52.450;13.326;2023-09-18T20:26:07;21.40;99.90
3268;DHT22;1646;52.450;13.326;2023-09-18T20:31:05;21.40;99.90
3268;DHT22;1646;52.450;13.326;2023-09-18T20:36:05;21.40;99.90
3268;DHT22;1646;52.450;13.326;2023-09-18T20:41:04;21.30;99.90
3268;DHT22;1646;52.450;13.326;2023-09-18T20:46:04;21.20;99.90
3268;DHT22;1646;52.450;13.326;2023-09-18T20:51:03;21.20;99.90
3268;DHT22;1646;52.450;13.326;2023-09-18T20:56:01;21.10;99.90
3268;DHT22;1646;52.450;13.326;2023-09-18T21:01:00;21.10;99.90
3268;DHT22;1646;52.450;13.326;2023-09-18T21:06:01;21.00;99.90
3268;DHT22;1646;52.450;13.326;2023-09-18T21:10:59;21.00;99.90
3268;DHT22;1646;52.450;13.326;2023-09-18T21:15:57;20.90;99.90
3268;DHT22;1646;52.450;13.326;2023-09-18T21:21:01;20.80;99.90
3268;DHT22;1646;52.450;13.326;2023-09-18T21:26:11;20.80;99.90
3268;DHT22;1646;52.450;13.326;2023-09-18T21:31:09;20.80;99.90
3268;DHT22;1646;52.450;13.326;2023-09-18T21:36:14;20.80;99.90
3268;DHT22;1646;52.450;13.326;2023-09-18T21:41:13;20.80;99.90
3268;DHT22;1646;52.450;13.326;2023-09-18T21:46:14;20.70;99.90
3268;DHT22;1646;52.450;13.326;2023-09-18T21:51:13;20.70;99.90
3268;DHT22;1646;52.450;13.326;2023-09-18T21:56:15;20.60;99.90
3268;DHT22;1646;52.450;13.326;2023-09-18T22:01:14;20.50;99.90
3268;DHT22;1646;52.450;13.326;2023-09-18T22:06:13;20.50;99.90
3268;DHT22;1646;52.450;13.326;2023-09-18T22:11:12;20.50;99.90
3268;DHT22;1646;52.450;13.326;2023-09-18T22:16:10;20.40;99.90
3268;DHT22;1646;52.450;13.326;2023-09-18T22:21:10;20.40;99.90
3268;DHT22;1646;52.450;13.326;2023-09-18T22:26:10;20.30;99.90
3268;DHT22;1646;52.450;13.326;2023-09-18T22:31:08;20.30;99.90
3268;DHT22;1646;52.450;13.326;2023-09-18T22:36:10;20.30;99.90
3268;DHT22;1646;52.450;13.326;2023-09-18T22:57:39;20.20;99.90
3268;DHT22;1646;52.450;13.326;2023-09-18T23:02:39;20.20;99.90
3268;DHT22;1646;52.450;13.326;2023-09-18T23:07:42;20.10;99.90
3268;DHT22;1646;52.450;13.326;2023-09-18T23:12:43;20.10;99.90
3268;DHT22;1646;52.450;13.326;2023-09-18T23:17:42;20.00;99.90
3268;DHT22;1646;52.450;13.326;2023-09-18T23:22:43;20.00;99.90
3268;DHT22;1646;52.450;13.326;2023-09-18T23:27:46;20.00;99.90
3268;DHT22;1646;52.450;13.326;2023-09-18T23:32:52;20.10;99.90
3268;DHT22;1646;52.450;13.326;2023-09-18T23:37:54;20.00;99.90
3268;DHT22;1646;52.450;13.326;2023-09-18T23:42:57;20.00;99.90
3268;DHT22;1646;52.450;13.326;2023-09-18T23:48:07;20.00;99.90
3268;DHT22;1646;52.450;13.326;2023-09-18T23:53:09;19.90;99.90
3268;DHT22;1646;52.450;13.326;2023-09-18T23:58:16;19.90;99.90
